Time;durP1;ratioP1;P1;durP2;ratioP2;P2;SDS_P1;SDS_P2;PMS_P1;PMS_P2;Temp;Humidity;BMP_temperature;BMP_pressure;BME280_temperature;BME280_humidity;BME280_pressure;Samples;Min_cycle;Max_cycle;Signal;HPM_P1;HPM_P2
2023/11/09 00:01:21;;;;;;;;;2.00;2.00;;;;;13.77;82.31;100154.13;5059105;28;45528;-62
2023/11/09 00:03:47;;;;;;;;;4.00;1.50;;;;;13.70;82.24;100126.78;5065903;28;45362;-62
2023/11/09 00:06:12;;;;;;;;;2.00;2.00;;;;;13.68;82.65;100136.69;5020211;27;1106547;-62
2023/11/09 00:08:42;;;;;;;;;2.50;2.00;;;;;13.71;82.83;100123.13;5073487;28;47011;-62
2023/11/09 00:11:08;;;;;;;;;2.00;2.00;;;;;13.68;83.06;100118.81;5060435;28;45389;-62
2023/11/09 00:13:33;;;;;;;;;2.50;2.50;;;;;13.75;83.23;100130.06;5065936;28;45505;-62
2023/11/09 00:15:58;;;;;;;;;1.00;1.00;;;;;13.65;83.18;100108.25;5073076;28;58529;-62
2023/11/09 00:18:24;;;;;;;;;2.00;2.00;;;;;13.71;83.20;100115.09;5068769;28;65033;-62
2023/11/09 00:20:50;;;;;;;;;1.00;1.00;;;;;13.78;83.43;100120.97;5059928;28;45479;-62
2023/11/09 00:23:16;;;;;;;;;1.50;1.50;;;;;13.68;83.25;100096.47;5060258;28;45532;-62
2023/11/09 00:25:41;;;;;;;;;3.00;3.00;;;;;13.71;83.42;100107.03;5060288;28;45523;-62
2023/11/09 00:28:07;;;;;;;;;0.75;0.75;;;;;13.74;83.48;100106.88;5059392;28;64212;-61
2023/11/09 00:30:32;;;;;;;;;3.00;2.00;;;;;13.74;83.79;100112.22;5064972;28;45542;-62
2023/11/09 00:32:58;;;;;;;;;1.00;1.00;;;;;13.76;84.00;100098.75;5075347;28;45447;-62
2023/11/09 00:35:23;;;;;;;;;1.00;1.00;;;;;13.67;83.66;100086.72;5059822;28;45299;-62
2023/11/09 00:37:50;;;;;;;;;1.00;1.00;;;;;13.71;83.90;100090.94;5059084;28;45339;-62
2023/11/09 00:40:15;;;;;;;;;4.00;1.50;;;;;13.77;83.90;100095.97;5059845;28;45327;-62
2023/11/09 00:42:40;;;;;;;;;1.00;1.00;;;;;13.77;84.37;100090.59;5068292;28;46279;-62
2023/11/09 00:45:07;;;;;;;;;1.00;1.00;;;;;13.81;84.18;100102.03;5073753;28;71532;-62
2023/11/09 00:47:32;;;;;;;;;1.00;1.00;;;;;13.77;84.36;100090.59;5059934;28;45438;-62
2023/11/09 00:49:58;;;;;;;;;1.25;0.75;;;;;13.78;84.32;100091.47;5064386;28;45380;-62
2023/11/09 00:52:24;;;;;;;;;2.00;2.00;;;;;13.71;84.48;100080.22;5067184;27;45528;-62
2023/11/09 00:54:51;;;;;;;;;2.00;2.00;;;;;13.71;84.55;100086.47;5059764;28;45441;-62
2023/11/09 00:57:16;;;;;;;;;0.00;0.00;;;;;13.79;84.52;100096.75;5065381;27;45377;-62
2023/11/09 00:59:46;;;;;;;;;1.00;1.00;;;;;13.74;84.50;100085.41;5074535;28;45677;-62
2023/11/09 01:02:12;;;;;;;;;0.00;0.00;;;;;13.70;84.65;100075.81;5070181;28;46654;-61
2023/11/09 01:04:37;;;;;;;;;2.00;1.00;;;;;13.75;84.73;100086.25;5059589;27;45460;-62
2023/11/09 01:07:03;;;;;;;;;1.00;1.00;;;;;13.67;85.03;100079.53;5060935;28;46065;-62
2023/11/09 01:09:28;;;;;;;;;2.00;2.00;;;;;13.69;84.78;100080.28;5073055;28;45569;-62
2023/11/09 01:11:55;;;;;;;;;0.25;0.00;;;;;13.69;85.51;100085.66;5065029;28;52294;-62
2023/11/09 01:14:20;;;;;;;;;1.00;1.00;;;;;13.63;85.55;100077.97;5065714;28;56498;-62
2023/11/09 01:16:46;;;;;;;;;0.00;0.00;;;;;13.65;85.62;100073.38;5066231;27;45445;-62
2023/11/09 01:19:11;;;;;;;;;0.25;0.25;;;;;13.69;85.81;100077.63;5070669;28;45774;-62
2023/11/09 01:21:36;;;;;;;;;0.50;0.50;;;;;13.70;86.02;100091.91;5061206;28;58623;-62
2023/11/09 01:24:02;;;;;;;;;0.25;0.25;;;;;13.70;85.86;100091.91;5059376;28;45295;-62
2023/11/09 01:26:28;;;;;;;;;0.25;0.00;;;;;13.74;85.88;100077.38;5071834;28;47296;-62
2023/11/09 01:28:53;;;;;;;;;0.50;0.50;;;;;13.70;86.19;100076.69;5072500;27;45392;-62
2023/11/09 01:31:19;;;;;;;;;0.00;0.00;;;;;13.69;86.17;100077.63;5072681;28;45342;-62
2023/11/09 01:33:44;;;;;;;;;0.00;0.00;;;;;13.64;86.20;100068.09;5074638;27;45427;-62
2023/11/09 01:36:13;;;;;;;;;0.50;0.50;;;;;13.70;86.42;100065.94;5058925;28;46247;-62
2023/11/09 01:38:39;;;;;;;;;0.50;0.50;;;;;13.72;86.59;100060.50;5072241;28;45379;-62
2023/11/09 01:41:06;;;;;;;;;0.00;0.00;;;;;13.70;86.59;100051.69;5058310;28;69101;-62
2023/11/09 01:43:32;;;;;;;;;1.00;1.00;;;;;13.74;86.49;100052.38;5069262;28;45520;-62
2023/11/09 01:45:57;;;;;;;;;0.00;0.00;;;;;13.74;86.62;100055.06;5066155;27;46174;-62
2023/11/09 01:48:23;;;;;;;;;0.50;0.50;;;;;13.70;86.72;100052.53;5059081;27;45312;-62
2023/11/09 01:50:51;;;;;;;;;1.50;0.00;;;;;13.71;86.78;100043.56;5070153;28;45645;-62
2023/11/09 01:53:17;;;;;;;;;0.00;0.00;;;;;13.72;86.68;100041.72;5073063;27;45474;-62
2023/11/09 01:55:43;;;;;;;;;0.00;0.00;;;;;13.76;86.91;100034.38;5067127;28;46946;-62
2023/11/09 01:58:09;;;;;;;;;0.00;0.00;;;;;13.73;86.71;100040.75;5071713;27;45672;-62
2023/11/09 02:00:36;;;;;;;;;2.00;0.00;;;;;13.74;86.78;100044.31;5058816;28;45404;-62
2023/11/09 02:03:01;;;;;;;;;0.25;0.25;;;;;13.75;86.71;100032.63;5074920;28;45446;-62
2023/11/09 02:05:27;;;;;;;;;0.75;0.75;;;;;13.74;86.87;100041.63;5065926;27;45436;-62
2023/11/09 02:07:53;;;;;;;;;1.00;0.00;;;;;13.72;86.96;100041.72;5062491;28;45527;-62
2023/11/09 02:10:19;;;;;;;;;0.00;0.00;;;;;13.69;86.84;100041.88;5057945;28;45238;-62
2023/11/09 02:12:44;;;;;;;;;0.25;0.25;;;;;13.69;87.07;100033.84;5065284;27;45801;-62
2023/11/09 02:15:10;;;;;;;;;0.00;0.00;;;;;13.61;87.22;100012.81;5065723;27;46695;-62
2023/11/09 02:17:36;;;;;;;;;0.50;0.00;;;;;13.60;87.36;100012.91;5064984;28;45316;-62
2023/11/09 02:20:02;;;;;;;;;0.00;0.00;;;;;13.65;87.45;100027.78;5057085;28;45571;-62
2023/11/09 02:22:27;;;;;;;;;0.00;0.00;;;;;13.61;87.74;100010.13;5059535;28;45391;-62
2023/11/09 02:24:56;;;;;;;;;0.00;0.00;;;;;13.60;87.54;100004.84;5071820;28;45419;-62
2023/11/09 02:27:21;;;;;;;;;0.00;0.00;;;;;13.68;87.54;100018.69;5062546;28;45535;-61
2023/11/09 02:29:47;;;;;;;;;0.00;0.00;;;;;13.69;87.71;100015.06;5058947;28;45401;-62
2023/11/09 02:32:12;;;;;;;;;0.00;0.00;;;;;13.67;87.75;100000.91;5077988;27;58515;-62
2023/11/09 02:34:37;;;;;;;;;0.00;0.00;;;;;13.65;87.64;99995.63;5066294;27;45442;-62
2023/11/09 02:37:07;;;;;;;;;0.00;0.00;;;;;13.69;87.70;99999.84;5063725;28;45248;-61
2023/11/09 02:39:33;;;;;;;;;1.00;0.00;;;;;13.68;87.72;99991.88;5077819;27;45465;-62
2023/11/09 02:41:59;;;;;;;;;0.00;0.00;;;;;13.64;87.78;99977.78;5058574;27;45570;-62
2023/11/09 02:44:25;;;;;;;;;0.00;0.00;;;;;13.74;87.81;100004.94;5076124;28;45377;-62
2023/11/09 02:46:50;;;;;;;;;0.00;0.00;;;;;13.74;87.51;100010.31;5060728;27;72987;-62
2023/11/09 02:49:15;;;;;;;;;1.00;0.00;;;;;13.78;88.12;100019.94;5071038;28;66183;-62
2023/11/09 02:51:40;;;;;;;;;0.00;0.00;;;;;13.78;88.11;100030.66;5057685;28;63495;-62
2023/11/09 02:54:06;;;;;;;;;1.00;0.00;;;;;13.80;87.88;100019.81;5057749;28;46072;-62
2023/11/09 02:56:32;;;;;;;;;1.00;1.00;;;;;13.79;87.65;100016.28;5074719;28;45361;-62
2023/11/09 02:58:58;;;;;;;;;2.00;0.00;;;;;13.73;86.86;100023.81;5064684;27;45438;-62
2023/11/09 03:01:23;;;;;;;;;0.25;0.00;;;;;13.70;86.78;100025.72;5067469;27;62825;-62
2023/11/09 03:03:51;;;;;;;;;1.00;0.00;;;;;13.75;86.52;100040.66;5067245;27;45331;-62
2023/11/09 03:06:17;;;;;;;;;2.00;1.00;;;;;13.75;86.52;100049.59;5076054;28;45475;-62
2023/11/09 03:08:42;;;;;;;;;2.00;1.00;;;;;13.69;86.46;100042.75;5065142;28;45335;-61
2023/11/09 03:11:09;;;;;;;;;0.00;0.00;;;;;13.73;86.64;100047.94;5061246;28;52633;-62
2023/11/09 03:13:39;;;;;;;;;0.00;0.00;;;;;13.75;86.66;100051.41;5061270;28;46888;-62
2023/11/09 03:16:06;;;;;;;;;1.25;1.00;;;;;13.73;86.36;100037.22;5061570;28;45410;-62
2023/11/09 03:18:31;;;;;;;;;1.50;1.50;;;;;13.62;86.45;100021.75;5074430;28;45333;-62
2023/11/09 03:20:57;;;;;;;;;2.00;1.00;;;;;13.75;86.07;100027.25;5058880;28;75477;-62
2023/11/09 03:23:23;;;;;;;;;2.00;1.00;;;;;13.61;86.30;100002.09;5061035;28;47275;-62
2023/11/09 03:25:48;;;;;;;;;0.50;0.00;;;;;13.68;86.27;100024.06;5061537;28;45461;-62
2023/11/09 03:28:14;;;;;;;;;0.50;0.50;;;;;13.75;86.30;100032.63;5062449;28;45557;-62
2023/11/09 03:30:39;;;;;;;;;1.50;1.00;;;;;13.74;85.85;100039.81;5069448;27;67975;-62
2023/11/09 03:33:04;;;;;;;;;0.00;0.00;;;;;13.71;85.62;100046.22;5072875;28;49747;-62
2023/11/09 03:35:30;;;;;;;;;1.00;1.00;;;;;13.76;85.29;100056.69;5073875;28;45303;-62
2023/11/09 03:37:55;;;;;;;;;1.25;1.00;;;;;13.74;85.60;100052.38;5065932;28;45610;-62
2023/11/09 03:40:21;;;;;;;;;1.75;0.75;;;;;13.74;85.24;100057.72;5060344;28;56154;-62
2023/11/09 03:42:46;;;;;;;;;1.00;0.50;;;;;13.73;85.22;100061.34;5064531;28;55373;-61
2023/11/09 03:45:11;;;;;;;;;0.75;0.00;;;;;13.71;84.79;100048.91;5075307;27;45366;-61
2023/11/09 03:47:37;;;;;;;;;4.00;0.75;;;;;13.71;84.62;100050.72;5069281;28;45236;-62
2023/11/09 03:50:04;;;;;;;;;1.75;1.75;;;;;13.67;84.60;100050.03;5061483;27;45774;-62
2023/11/09 03:52:29;;;;;;;;;2.75;2.25;;;;;13.64;84.72;100050.19;5060906;28;45896;-62
2023/11/09 03:54:55;;;;;;;;;0.50;0.00;;;;;13.59;84.63;100029.97;5060266;28;45326;-62
2023/11/09 03:57:20;;;;;;;;;0.50;0.00;;;;;13.67;83.87;100039.28;5072827;28;45374;-61
2023/11/09 03:59:45;;;;;;;;;1.75;1.75;;;;;13.66;83.21;100045.59;5066846;27;45535;-62
2023/11/09 04:02:11;;;;;;;;;2.00;0.00;;;;;13.65;83.36;100041.22;5080936;27;45405;-62
2023/11/09 04:04:36;;;;;;;;;1.75;1.00;;;;;13.66;83.52;100034.00;5060380;27;67618;-62
2023/11/09 04:07:01;;;;;;;;;2.00;1.00;;;;;13.53;83.90;100023.09;5064006;28;53193;-62
2023/11/09 04:09:27;;;;;;;;;1.50;1.00;;;;;13.60;83.69;100040.59;5061277;27;45516;-62
2023/11/09 04:11:52;;;;;;;;;1.00;1.00;;;;;13.49;83.77;100019.72;5059156;28;49515;-61
2023/11/09 04:14:17;;;;;;;;;1.00;1.00;;;;;13.54;83.64;100019.47;5060263;28;45438;-62
2023/11/09 04:16:43;;;;;;;;;1.25;1.00;;;;;13.60;83.56;100034.34;5063238;28;45480;-61
2023/11/09 04:19:08;;;;;;;;;4.50;1.00;;;;;13.60;84.08;100045.97;5064282;27;47386;-62
2023/11/09 04:21:35;;;;;;;;;1.50;1.00;;;;;13.53;83.69;100036.50;5060285;28;46047;-62
2023/11/09 04:24:00;;;;;;;;;2.75;1.00;;;;;13.57;83.88;100056.00;5060229;28;45605;-61
2023/11/09 04:26:25;;;;;;;;;1.50;0.50;;;;;13.54;84.04;100057.03;5059999;28;45438;-62
2023/11/09 04:28:51;;;;;;;;;0.25;0.25;;;;;13.57;83.82;100066.72;5073807;28;45323;-61
2023/11/09 04:31:20;;;;;;;;;2.25;0.25;;;;;13.53;83.83;100057.97;5070882;27;46269;-62
2023/11/09 04:33:46;;;;;;;;;4.00;1.00;;;;;13.55;83.86;100063.25;5075246;27;45563;-62
2023/11/09 04:36:11;;;;;;;;;1.00;1.00;;;;;13.56;84.05;100064.97;5064731;28;45598;-62
2023/11/09 04:38:38;;;;;;;;;0.75;0.50;;;;;13.56;84.23;100071.19;5076944;28;67312;-62
2023/11/09 04:41:09;;;;;;;;;2.00;0.00;;;;;13.48;84.11;100054.66;5079018;28;46135;-62
2023/11/09 04:43:37;;;;;;;;;2.75;1.00;;;;;13.52;84.47;100061.63;5071453;27;45598;-61
2023/11/09 04:46:08;;;;;;;;;1.25;1.25;;;;;13.55;84.15;100079.31;5067178;27;45438;-62
2023/11/09 04:48:44;;;;;;;;;1.00;1.00;;;;;13.48;84.06;100062.72;5075758;28;45441;-62
2023/11/09 04:51:09;;;;;;;;;2.00;1.00;;;;;13.50;84.25;100075.09;5064869;27;46380;-62
2023/11/09 04:53:41;;;;;;;;;1.25;1.25;;;;;13.51;84.27;100076.84;5059843;28;45419;-62
2023/11/09 04:56:19;;;;;;;;;3.00;2.00;;;;;13.51;84.02;100076.84;5061952;28;45336;-62
2023/11/09 04:58:47;;;;;;;;;1.00;1.00;;;;;13.46;84.32;100075.34;5059751;28;45350;-62
2023/11/09 05:06:52;;;;;;;;;1.00;1.00;;;;;13.42;84.11;100080.03;5067957;28;45468;-62
2023/11/09 05:09:21;;;;;;;;;6.25;1.75;;;;;13.43;83.85;100087.13;5059489;28;45465;-61
2023/11/09 05:11:47;;;;;;;;;2.75;1.00;;;;;13.46;83.81;100088.75;5069341;28;47894;-62
2023/11/09 05:14:13;;;;;;;;;2.00;1.00;;;;;13.43;83.67;100083.56;5075097;27;45466;-61
2023/11/09 05:16:39;;;;;;;;;3.75;1.25;;;;;13.42;83.56;100084.53;5059278;28;45395;-62
2023/11/09 05:19:04;;;;;;;;;0.25;0.25;;;;;13.35;83.98;100073.28;5075299;28;45511;-61
2023/11/09 05:21:29;;;;;;;;;2.00;0.50;;;;;13.35;83.73;100094.72;5067050;27;72532;-62
2023/11/09 05:23:55;;;;;;;;;1.00;1.00;;;;;13.30;84.16;100080.66;5058776;28;45425;-62
2023/11/09 05:26:21;;;;;;;;;1.75;1.75;;;;;13.36;83.88;100090.22;5077550;28;45379;-62
2023/11/09 05:28:47;;;;;;;;;0.25;0.25;;;;;13.36;83.58;100087.53;5060772;27;45516;-62
2023/11/09 05:31:12;;;;;;;;;3.75;1.00;;;;;13.37;83.41;100091.94;5063444;28;45401;-61
2023/11/09 05:33:38;;;;;;;;;2.00;1.75;;;;;13.30;83.36;100092.25;5059131;28;45810;-62
2023/11/09 05:36:07;;;;;;;;;4.25;0.25;;;;;13.36;83.16;100100.94;5062610;28;45569;-61
2023/11/09 05:38:34;;;;;;;;;4.00;1.00;;;;;13.36;83.28;100109.84;5060211;28;45490;-62
2023/11/09 05:40:59;;;;;;;;;3.25;1.00;;;;;13.30;83.09;100102.97;5058754;28;45524;-61
2023/11/09 05:43:27;;;;;;;;;1.25;1.25;;;;;13.33;83.18;100112.66;5077076;28;45318;-62
2023/11/09 05:45:52;;;;;;;;;4.25;2.00;;;;;13.30;83.20;100104.78;5075086;27;45407;-62
2023/11/09 05:48:18;;;;;;;;;5.00;1.25;;;;;13.33;83.02;100108.19;5067324;28;45542;-62
2023/11/09 05:50:43;;;;;;;;;2.00;2.00;;;;;13.26;83.16;100087.13;5069497;28;57800;-61
2023/11/09 05:53:08;;;;;;;;;1.00;1.00;;;;;13.26;82.97;100096.03;5073189;28;67000;-62
2023/11/09 05:55:34;;;;;;;;;6.00;1.00;;;;;13.25;82.77;100104.16;5057509;28;45445;-62
2023/11/09 05:57:59;;;;;;;;;3.00;1.00;;;;;13.23;82.84;100098.91;5072197;28;45486;-62
2023/11/09 06:00:26;;;;;;;;;2.25;2.25;;;;;13.26;82.79;100109.41;5058071;28;65452;-61
2023/11/09 06:02:51;;;;;;;;;1.00;1.00;;;;;13.28;83.01;100120.06;5058827;28;45382;-62
2023/11/09 06:05:17;;;;;;;;;2.00;2.00;;;;;13.28;82.85;100126.31;5058335;28;45465;-62
2023/11/09 06:07:43;;;;;;;;;1.25;1.25;;;;;13.26;82.91;100122.81;5063080;28;45351;-62
2023/11/09 06:10:09;;;;;;;;;4.50;2.75;;;;;13.24;83.05;100119.38;5058692;28;45348;-62
2023/11/09 06:12:36;;;;;;;;;4.00;2.00;;;;;13.23;83.23;100119.44;5058709;28;45319;-61
2023/11/09 06:15:02;;;;;;;;;2.00;1.00;;;;;13.24;83.00;100124.72;5069834;28;45586;-62
2023/11/09 06:17:28;;;;;;;;;3.25;2.50;;;;;13.16;83.21;100124.25;5072187;28;45427;-62
2023/11/09 06:19:53;;;;;;;;;4.00;2.00;;;;;13.22;83.20;100136.50;5070115;28;45387;-62
2023/11/09 06:22:18;;;;;;;;;3.75;2.00;;;;;13.22;83.41;100141.84;5071835;28;45408;-62
2023/11/09 06:24:44;;;;;;;;;6.25;2.25;;;;;13.13;83.16;100137.81;5064625;28;45477;-62
2023/11/09 06:27:09;;;;;;;;;2.75;2.00;;;;;13.11;83.46;100143.28;5071303;28;45398;-61
2023/11/09 06:29:34;;;;;;;;;5.00;2.00;;;;;13.05;83.45;100142.75;5057499;28;68619;-62
2023/11/09 06:32:00;;;;;;;;;1.25;1.25;;;;;13.09;83.74;100146.97;5063762;27;50911;-62
2023/11/09 06:34:26;;;;;;;;;3.00;2.00;;;;;13.14;83.68;100163.69;5058284;28;45511;-62
2023/11/09 06:36:52;;;;;;;;;2.00;2.00;;;;;13.09;83.39;100163.91;5061766;28;45359;-62
2023/11/09 06:39:18;;;;;;;;;2.00;2.00;;;;;13.16;83.60;100172.50;5066023;28;45712;-62
2023/11/09 06:41:45;;;;;;;;;3.75;2.25;;;;;13.12;83.55;100163.75;5064774;27;45565;-62
2023/11/09 06:44:12;;;;;;;;;3.75;3.75;;;;;13.03;83.47;100144.59;5063641;28;45335;-60
2023/11/09 06:46:38;;;;;;;;;3.00;2.00;;;;;13.11;82.96;100167.41;5065449;28;45434;-62
2023/11/09 06:49:06;;;;;;;;;2.25;2.25;;;;;13.16;83.27;100170.72;5065467;28;46595;-63
2023/11/09 06:51:35;;;;;;;;;3.00;2.00;;;;;13.10;83.05;100168.34;5076490;27;45417;-62
2023/11/09 06:54:04;;;;;;;;;1.50;1.00;;;;;13.14;83.11;100177.94;5073432;28;45368;-62
2023/11/09 06:56:32;;;;;;;;;1.00;1.00;;;;;13.16;83.00;100185.91;5061631;28;45417;-62
2023/11/09 06:59:00;;;;;;;;;1.00;1.00;;;;;13.15;82.74;100179.69;5061315;28;46186;-62
2023/11/09 07:01:26;;;;;;;;;2.75;2.00;;;;;13.04;82.72;100170.47;5060794;28;45585;-63
2023/11/09 07:03:51;;;;;;;;;3.75;3.00;;;;;13.00;82.89;100161.72;5062429;28;45728;-62
2023/11/09 07:06:18;;;;;;;;;3.75;2.25;;;;;13.12;83.08;100190.56;5075809;28;45472;-63
2023/11/09 07:08:43;;;;;;;;;2.25;2.25;;;;;13.12;83.20;100197.75;5067348;28;46255;-63
2023/11/09 07:11:09;;;;;;;;;3.00;1.25;;;;;13.12;82.87;100198.59;5068851;28;59359;-63
2023/11/09 07:13:36;;;;;;;;;2.25;2.00;;;;;13.04;83.07;100190.09;5061221;28;45482;-63
2023/11/09 07:16:07;;;;;;;;;4.00;1.75;;;;;13.11;82.96;100204.03;5061428;28;45509;-63
2023/11/09 07:18:33;;;;;;;;;3.75;2.00;;;;;13.10;82.81;100205.84;5061032;28;46619;-63
2023/11/09 07:20:58;;;;;;;;;3.50;2.00;;;;;13.09;83.09;100204.09;5066608;27;46850;-63
2023/11/09 07:23:24;;;;;;;;;3.00;2.00;;;;;13.09;82.88;100197.88;5066364;28;45347;-63
2023/11/09 07:25:53;;;;;;;;;2.50;2.50;;;;;13.05;82.76;100205.22;5073580;28;45503;-63
2023/11/09 07:28:20;;;;;;;;;4.50;2.00;;;;;13.06;83.08;100214.13;5068431;28;46253;-63
2023/11/09 07:30:48;;;;;;;;;5.00;3.25;;;;;13.05;82.62;100218.63;5080334;27;45516;-63
2023/11/09 07:33:14;;;;;;;;;2.00;2.00;;;;;13.03;82.96;100223.19;5073563;27;45521;-63
2023/11/09 07:35:39;;;;;;;;;5.00;2.00;;;;;12.98;82.83;100220.75;5069100;28;45327;-63
2023/11/09 07:38:04;;;;;;;;;5.00;3.00;;;;;12.90;83.25;100222.09;5060787;28;46294;-63
2023/11/09 07:40:30;;;;;;;;;2.00;2.00;;;;;12.87;82.99;100227.59;5060947;28;46710;-63
2023/11/09 07:42:58;;;;;;;;;2.75;2.75;;;;;12.90;83.34;100228.31;5069402;28;63011;-63
2023/11/09 07:45:24;;;;;;;;;1.25;1.25;;;;;12.83;83.17;100223.31;5070560;27;45405;-63
2023/11/09 07:47:49;;;;;;;;;1.00;1.00;;;;;12.89;83.29;100226.56;5074365;28;51672;-63
2023/11/09 07:50:16;;;;;;;;;1.00;1.00;;;;;12.91;83.21;100229.16;5065551;27;45334;-63
2023/11/09 07:52:41;;;;;;;;;2.00;2.00;;;;;12.87;83.08;100223.09;5061352;27;45475;-63
2023/11/09 07:55:07;;;;;;;;;3.25;3.25;;;;;12.91;83.18;100227.38;5059931;28;57116;-64
2023/11/09 07:57:34;;;;;;;;;3.75;3.25;;;;;12.90;83.29;100233.66;5063480;28;46294;-62
2023/11/09 08:00:00;;;;;;;;;3.00;1.00;;;;;12.87;83.46;100228.44;5071405;28;45485;-63
2023/11/09 08:02:26;;;;;;;;;3.00;2.00;;;;;12.86;83.35;100226.69;5060495;28;45722;-63
2023/11/09 08:04:54;;;;;;;;;2.75;2.75;;;;;12.82;83.60;100230.50;5067020;27;45754;-62
2023/11/09 08:07:21;;;;;;;;;5.75;2.00;;;;;12.92;83.58;100253.19;5065253;28;46510;-62
2023/11/09 08:09:46;;;;;;;;;1.00;0.75;;;;;12.94;83.35;100251.28;5075851;27;45360;-63
2023/11/09 08:12:12;;;;;;;;;2.50;2.50;;;;;12.95;83.40;100254.88;5060940;28;60814;-63
2023/11/09 08:14:38;;;;;;;;;2.75;2.00;;;;;12.92;83.30;100245.16;5069070;27;45377;-63
2023/11/09 08:17:03;;;;;;;;;2.25;2.25;;;;;12.96;83.31;100256.56;5078197;27;46699;-62
2023/11/09 08:19:28;;;;;;;;;5.25;4.25;;;;;12.93;83.12;100240.66;5072124;27;45362;-63
2023/11/09 08:21:54;;;;;;;;;3.50;2.75;;;;;12.92;83.10;100250.50;5068177;27;50666;-62
2023/11/09 08:24:19;;;;;;;;;2.50;2.50;;;;;12.83;83.06;100228.66;5073369;27;45429;-63
2023/11/09 08:26:46;;;;;;;;;3.50;2.00;;;;;12.92;83.19;100250.50;5073128;27;46849;-63
2023/11/09 08:29:12;;;;;;;;;4.50;1.00;;;;;12.90;82.98;100247.06;5063027;27;45792;-63
2023/11/09 08:31:38;;;;;;;;;3.25;3.25;;;;;12.79;82.67;100212.75;5074510;27;45532;-63
2023/11/09 08:34:04;;;;;;;;;2.75;2.00;;;;;12.89;82.96;100233.72;5071057;27;45328;-62
2023/11/09 08:36:30;;;;;;;;;1.25;1.25;;;;;12.93;83.00;100238.88;5076990;27;46346;-63
2023/11/09 08:38:56;;;;;;;;;3.25;2.00;;;;;12.94;83.02;100237.91;5062511;27;45328;-63
2023/11/09 08:41:22;;;;;;;;;2.25;2.25;;;;;12.88;83.01;100224.84;5058511;28;45752;-62
2023/11/09 08:43:49;;;;;;;;;2.50;1.75;;;;;12.93;83.09;100233.50;5067832;28;45631;-62
2023/11/09 08:46:15;;;;;;;;;3.00;3.00;;;;;12.92;82.96;100237.13;5067578;27;45450;-62
2023/11/09 08:48:41;;;;;;;;;3.00;3.00;;;;;12.96;82.24;100235.16;5074126;27;45396;-62
2023/11/09 08:51:11;;;;;;;;;3.25;1.50;;;;;12.91;82.22;100226.47;5070566;27;45524;-62
2023/11/09 08:53:36;;;;;;;;;4.75;4.00;;;;;12.89;82.68;100221.19;5074926;27;45461;-62
2023/11/09 08:56:02;;;;;;;;;4.50;4.50;;;;;12.91;82.73;100227.38;5062628;28;46061;-62
2023/11/09 08:58:29;;;;;;;;;3.00;3.00;;;;;12.93;82.36;100233.50;5064473;27;45528;-62
2023/11/09 09:01:01;;;;;;;;;4.00;2.25;;;;;12.86;82.35;100207.94;5078217;27;45528;-62
2023/11/09 09:03:26;;;;;;;;;6.00;3.50;;;;;12.82;82.30;100205.53;5060971;27;45569;-62
2023/11/09 09:05:52;;;;;;;;;4.75;3.75;;;;;12.95;81.88;100228.06;5063902;28;47850;-62
2023/11/09 09:08:17;;;;;;;;;7.50;4.00;;;;;12.91;82.30;100219.34;5064777;28;45321;-62
2023/11/09 09:10:43;;;;;;;;;3.75;3.00;;;;;12.93;82.57;100213.88;5065048;27;45435;-62
2023/11/09 09:13:08;;;;;;;;;5.75;4.00;;;;;13.01;82.27;100224.22;5071830;28;45524;-62
2023/11/09 09:15:35;;;;;;;;;4.00;3.00;;;;;13.00;82.00;100212.63;5073412;27;70532;-62
2023/11/09 09:18:00;;;;;;;;;2.50;2.00;;;;;12.98;81.90;100218.06;5075718;27;45668;-62
2023/11/09 09:20:25;;;;;;;;;2.75;2.75;;;;;12.98;81.96;100207.34;5073746;27;45395;-62
2023/11/09 09:22:54;;;;;;;;;5.00;2.50;;;;;13.02;82.13;100209.88;5070729;27;45390;-62
2023/11/09 09:25:22;;;;;;;;;4.75;3.75;;;;;13.02;81.61;100208.06;5072472;27;46556;-62
2023/11/09 09:27:48;;;;;;;;;8.25;6.00;;;;;13.01;81.91;100209.00;5062768;28;45405;-62
2023/11/09 09:30:19;;;;;;;;;5.00;5.00;;;;;12.97;81.70;100191.34;5065720;28;45577;-62
2023/11/09 09:32:46;;;;;;;;;3.00;2.00;;;;;13.05;81.77;100204.38;5070899;27;45878;-62
2023/11/09 09:35:12;;;;;;;;;5.00;4.50;;;;;13.05;81.52;100202.53;5073736;27;45379;-62
2023/11/09 09:37:48;;;;;;;;;0.00;0.00;;;;;13.06;81.42;100203.41;5060841;28;45512;-62
2023/11/09 09:40:17;;;;;;;;;4.00;4.00;;;;;12.87;81.80;100174.03;5071781;28;45615;-62
2023/11/09 09:42:46;;;;;;;;;3.75;3.00;;;;;13.00;81.56;100190.31;5061159;28;45362;-62
2023/11/09 09:45:26;;;;;;;;;5.25;4.00;;;;;13.06;81.40;100198.91;5073150;27;46018;-62
2023/11/09 09:47:53;;;;;;;;;4.75;4.75;;;;;12.97;81.92;100175.28;5069715;27;45807;-62
2023/11/09 09:50:24;;;;;;;;;4.75;4.50;;;;;13.07;81.97;100181.03;5070671;27;45555;-62
2023/11/09 09:52:57;;;;;;;;;9.00;5.75;;;;;13.12;81.90;100192.38;5067809;27;45591;-61
2023/11/09 09:55:24;;;;;;;;;5.00;3.75;;;;;13.11;81.82;100183.47;5057903;28;45834;-63
2023/11/09 09:57:53;;;;;;;;;5.75;4.50;;;;;13.18;81.64;100189.38;5063026;27;45819;-62
2023/11/09 10:00:25;;;;;;;;;6.00;4.25;;;;;13.10;81.80;100156.75;5066091;28;45900;-62
2023/11/09 10:02:52;;;;;;;;;5.75;5.75;;;;;13.18;81.92;100164.38;5063258;27;45700;-62
2023/11/09 10:05:18;;;;;;;;;3.00;3.00;;;;;13.21;81.95;100156.19;5070062;28;46264;-63
2023/11/09 10:08:10;;;;;;;;;3.50;3.00;;;;;13.26;81.72;100179.09;5065562;27;45851;-62
2023/11/09 10:10:40;;;;;;;;;5.00;3.25;;;;;13.26;81.34;100164.84;5071349;28;45667;-62
2023/11/09 10:13:10;;;;;;;;;11.00;3.25;;;;;13.21;81.96;100166.91;5078808;28;45315;-62
2023/11/09 10:15:36;;;;;;;;;5.75;3.75;;;;;13.26;81.58;100175.56;5081475;27;45914;-63
2023/11/09 10:18:02;;;;;;;;;2.75;2.00;;;;;13.16;81.65;100154.63;5073630;27;45497;-62
2023/11/09 10:20:28;;;;;;;;;5.25;2.25;;;;;13.24;81.83;100172.97;5066070;27;45469;-61
2023/11/09 10:22:56;;;;;;;;;2.75;2.75;;;;;13.30;81.89;100174.47;5070816;27;45643;-62
2023/11/09 10:25:29;;;;;;;;;2.50;2.50;;;;;13.27;81.39;100167.44;5069997;27;45568;-62
2023/11/09 10:28:02;;;;;;;;;5.50;4.00;;;;;13.28;81.34;100166.50;5068605;27;45688;-63
2023/11/09 10:30:46;;;;;;;;;3.25;1.75;;;;;13.22;81.64;100153.44;5077855;28;45569;-63
2023/11/09 10:33:17;;;;;;;;;4.25;3.00;;;;;13.29;81.56;100162.00;5070866;28;45368;-62
2023/11/09 10:35:46;;;;;;;;;5.50;3.00;;;;;13.30;81.61;100158.41;5060692;28;46055;-63
2023/11/09 10:38:13;;;;;;;;;2.75;2.75;;;;;13.34;81.71;100160.84;5075267;27;45662;-62
2023/11/09 10:40:41;;;;;;;;;5.75;2.00;;;;;13.27;81.63;100140.66;5066619;28;45497;-63
2023/11/09 10:43:09;;;;;;;;;3.50;3.00;;;;;13.40;81.38;100161.47;5078255;27;45627;-62
2023/11/09 10:45:38;;;;;;;;;4.50;4.50;;;;;13.40;81.46;100161.47;5074276;27;46245;-63
2023/11/09 10:48:07;;;;;;;;;4.25;2.25;;;;;13.33;81.39;100145.72;5077365;27;45527;-62
2023/11/09 10:50:49;;;;;;;;;7.50;5.00;;;;;13.44;81.59;100158.53;5079288;27;45949;-62
2023/11/09 10:53:22;;;;;;;;;5.25;3.50;;;;;13.46;81.49;100150.41;5074359;27;45564;-62
2023/11/09 10:55:53;;;;;;;;;5.75;3.50;;;;;13.47;81.00;100136.06;5074359;28;45516;-62
2023/11/09 10:58:21;;;;;;;;;6.00;2.00;;;;;13.46;81.30;100135.19;5074458;27;45505;-63
2023/11/09 11:00:58;;;;;;;;;4.00;2.00;;;;;13.51;81.21;100143.00;5069423;28;45465;-63
2023/11/09 11:03:35;;;;;;;;;3.25;3.25;;;;;13.51;81.15;100143.88;5064891;27;45520;-63
2023/11/09 11:06:04;;;;;;;;;5.50;2.00;;;;;13.42;81.48;100125.59;5072129;28;45492;-63
2023/11/09 11:08:35;;;;;;;;;7.50;3.50;;;;;13.47;81.57;100138.75;5066991;27;45691;-63
2023/11/09 11:11:02;;;;;;;;;3.00;2.75;;;;;13.51;81.11;100151.03;5076490;27;45465;-62
2023/11/09 11:13:29;;;;;;;;;4.00;3.00;;;;;13.49;81.64;100145.75;5069152;28;45432;-62
2023/11/09 11:16:26;;;;;;;;;2.00;2.00;;;;;13.52;81.55;100142.06;5073403;27;46309;-63
2023/11/09 11:19:18;;;;;;;;;2.75;2.25;;;;;13.56;82.58;100140.06;5066204;28;45658;-63
2023/11/09 11:22:12;;;;;;;;;3.00;2.00;;;;;13.57;83.04;100126.56;5073574;28;45580;-63
2023/11/09 11:25:14;;;;;;;;;4.25;2.50;;;;;13.56;83.16;100114.09;5072044;27;45529;-62
2023/11/09 11:27:55;;;;;;;;;3.00;2.00;;;;;13.57;83.14;100112.31;5069065;28;46075;-63
2023/11/09 11:30:27;;;;;;;;;6.00;4.25;;;;;13.50;83.51;100109.97;5066420;28;45510;-62